Time;durP1;ratioP1;P1;durP2;ratioP2;P2;SDS_P1;SDS_P2;PMS_P1;PMS_P2;Temp;Humidity;BMP_temperature;BMP_pressure;BME280_temperature;BME280_humidity;BME280_pressure;Samples;Min_cycle;Max_cycle;Signal;HPM_P1;HPM_P2
2021/09/27 00:02:32;;;;;;;24.37;21.40;;;17.20;99.90;;;;;;6018077;23;20473;-93
2021/09/27 00:08:40;;;;;;;25.90;22.80;;;17.30;99.90;;;;;;6015176;23;20426;-93
2021/09/27 00:17:42;;;;;;;24.17;21.80;;;17.10;99.90;;;;;;6020810;23;20466;-93
2021/09/27 00:47:26;;;;;;;25.47;22.10;;;16.80;99.90;;;;;;5913816;23;20395;-92
2021/09/27 00:50:03;;;;;;;25.43;22.73;;;16.80;99.90;;;;;;5934158;23;20430;-91
2021/09/27 00:53:16;;;;;;;25.37;22.80;;;16.80;99.90;;;;;;6134725;23;20491;-91
2021/09/27 01:03:37;;;;;;;25.53;22.83;;;16.70;99.90;;;;;;5929241;24;20450;-91
2021/09/27 01:10:26;;;;;;;27.93;24.20;;;16.70;99.90;;;;;;5858205;24;20429;-91
2021/09/27 01:24:40;;;;;;;29.77;24.07;;;16.60;99.90;;;;;;5858948;24;20510;-92
2021/09/27 01:27:32;;;;;;;26.13;23.20;;;16.50;99.90;;;;;;5877962;24;20933;-87
2021/09/27 01:30:23;;;;;;;25.23;21.50;;;16.50;99.90;;;;;;5929024;24;20395;-86
2021/09/27 01:32:55;;;;;;;26.43;23.67;;;16.50;99.90;;;;;;6034773;23;20418;-87
2021/09/27 01:35:33;;;;;;;25.60;22.87;;;16.50;99.90;;;;;;6037760;23;20489;-87
2021/09/27 01:38:13;;;;;;;29.77;23.37;;;16.60;99.90;;;;;;6083292;23;20475;-87
2021/09/27 01:40:49;;;;;;;26.37;22.90;;;16.70;99.90;;;;;;6097671;23;20852;-87
2021/09/27 01:43:20;;;;;;;27.47;23.20;;;16.70;99.90;;;;;;6101425;23;20396;-88
2021/09/27 01:45:54;;;;;;;28.13;23.63;;;16.80;99.90;;;;;;6098556;23;20860;-87
2021/09/27 01:48:27;;;;;;;27.70;24.60;;;16.90;99.90;;;;;;6106638;23;20381;-86
2021/09/27 01:50:59;;;;;;;29.67;24.07;;;16.90;99.90;;;;;;6098192;23;20400;-87
2021/09/27 01:53:31;;;;;;;26.07;23.33;;;16.90;99.90;;;;;;6097507;23;20430;-87
2021/09/27 01:56:05;;;;;;;28.80;25.70;;;16.90;99.90;;;;;;6097151;23;20952;-87
2021/09/27 01:58:43;;;;;;;27.30;24.47;;;17.00;99.90;;;;;;6097365;23;20407;-87
2021/09/27 02:01:16;;;;;;;25.67;22.93;;;17.00;99.90;;;;;;6116648;23;20425;-87
2021/09/27 02:03:48;;;;;;;31.33;23.90;;;17.00;99.90;;;;;;6110483;23;20418;-87
2021/09/27 02:06:21;;;;;;;26.87;22.73;;;17.00;99.90;;;;;;6114908;23;20393;-87
2021/09/27 02:08:54;;;;;;;28.30;25.17;;;17.00;99.90;;;;;;6098868;23;20397;-87
2021/09/27 02:11:24;;;;;;;25.77;23.03;;;17.00;99.90;;;;;;6104222;23;20398;-87
2021/09/27 02:13:58;;;;;;;27.27;23.47;;;17.00;99.90;;;;;;6102983;23;20426;-88
2021/09/27 02:16:33;;;;;;;26.07;23.30;;;17.00;99.90;;;;;;6118203;23;20468;-88
2021/09/27 02:19:17;;;;;;;23.43;20.87;;;17.00;99.90;;;;;;6128082;23;20399;-88
2021/09/27 02:21:50;;;;;;;28.10;22.60;;;17.00;99.90;;;;;;6136444;23;20365;-88
2021/09/27 02:24:34;;;;;;;25.17;22.40;;;17.00;99.90;;;;;;6152521;23;20428;-87
2021/09/27 02:27:02;;;;;;;25.67;22.87;;;16.90;99.90;;;;;;6150930;23;20391;-87
2021/09/27 02:29:30;;;;;;;24.67;21.73;;;17.00;99.90;;;;;;6143874;23;20423;-87
2021/09/27 02:32:07;;;;;;;28.27;24.20;;;16.90;99.90;;;;;;6129591;23;20890;-87
2021/09/27 02:34:44;;;;;;;25.17;22.67;;;17.00;99.90;;;;;;6129079;23;20427;-87
2021/09/27 02:37:17;;;;;;;25.20;22.10;;;16.90;99.90;;;;;;6130080;23;20946;-87
2021/09/27 02:39:50;;;;;;;26.70;21.50;;;16.90;99.90;;;;;;6131383;23;20451;-87
2021/09/27 02:42:26;;;;;;;23.93;21.43;;;16.90;99.90;;;;;;6130164;23;20393;-87
2021/09/27 02:44:53;;;;;;;25.33;21.93;;;17.00;99.90;;;;;;6129257;23;20439;-88
2021/09/27 02:47:32;;;;;;;25.50;22.40;;;16.90;99.90;;;;;;6129776;23;20408;-87
2021/09/27 02:50:02;;;;;;;25.43;22.73;;;16.90;99.90;;;;;;6129123;23;20387;-87
2021/09/27 02:52:29;;;;;;;23.57;21.23;;;16.90;99.90;;;;;;6131262;23;20403;-87
2021/09/27 02:55:01;;;;;;;24.40;21.80;;;16.80;99.90;;;;;;6128303;23;20428;-87
2021/09/27 02:57:56;;;;;;;29.23;25.27;;;16.80;99.90;;;;;;6128037;23;20492;-88
2021/09/27 03:00:30;;;;;;;27.50;24.30;;;16.80;99.90;;;;;;6139677;23;20392;-87
2021/09/27 03:03:05;;;;;;;27.90;24.50;;;16.70;99.90;;;;;;6134755;23;20388;-88
2021/09/27 03:05:44;;;;;;;26.97;23.90;;;16.80;99.90;;;;;;6137059;23;20394;-87
2021/09/27 03:08:37;;;;;;;29.30;25.30;;;16.90;99.90;;;;;;6134332;23;20396;-93
2021/09/27 03:11:18;;;;;;;27.13;24.33;;;16.90;99.90;;;;;;6149107;23;20454;-92
2021/09/27 03:13:53;;;;;;;29.23;26.13;;;17.00;99.90;;;;;;6129478;23;20518;-93
2021/09/27 03:16:41;;;;;;;29.07;25.07;;;17.10;99.90;;;;;;6128936;23;20450;-92
2021/09/27 03:19:39;;;;;;;;;;;;;;;;;;;;;
2021/09/27 03:22:36;;;;;;;30.20;26.13;;;17.10;99.90;;;;;;6146285;23;20388;-92
2021/09/27 03:25:27;;;;;;;26.97;24.13;;;17.20;99.90;;;;;;6125965;23;20771;-92
2021/09/27 03:28:07;;;;;;;28.93;25.93;;;17.20;99.90;;;;;;6128622;23;20427;-93
2021/09/27 03:30:49;;;;;;;28.83;24.67;;;17.20;99.90;;;;;;6131383;23;20447;-93
2021/09/27 03:33:29;;;;;;;27.53;24.53;;;17.20;99.90;;;;;;6142455;23;20964;-92
2021/09/27 03:36:12;;;;;;;23.80;21.43;;;17.10;99.90;;;;;;6131692;23;20417;-93
2021/09/27 03:38:46;;;;;;;25.40;22.70;;;17.10;99.90;;;;;;6131019;23;20466;-92
2021/09/27 03:41:33;;;;;;;23.70;21.23;;;17.10;99.90;;;;;;6132249;23;20494;-92
2021/09/27 03:44:18;;;;;;;26.17;21.97;;;17.10;99.90;;;;;;6152082;23;20457;-90
2021/09/27 03:47:05;;;;;;;26.53;23.60;;;17.10;99.90;;;;;;6148116;23;20435;-91
2021/09/27 03:49:40;;;;;;;24.37;21.83;;;17.10;99.90;;;;;;6142165;23;20390;-91
2021/09/27 03:52:12;;;;;;;21.33;19.23;;;17.10;99.90;;;;;;6131966;23;20415;-93
2021/09/27 03:54:50;;;;;;;24.43;20.23;;;17.10;99.90;;;;;;6132635;23;20446;-92
2021/09/27 03:57:33;;;;;;;23.47;21.17;;;17.10;99.90;;;;;;6131734;23;20515;-92
2021/09/27 04:00:10;;;;;;;22.97;20.57;;;17.10;99.90;;;;;;6132060;23;20391;-93
2021/09/27 04:02:47;;;;;;;22.73;20.27;;;17.10;99.90;;;;;;6136512;23;20423;-92
2021/09/27 04:05:27;;;;;;;24.00;21.60;;;17.00;99.90;;;;;;6133767;23;20416;-93
2021/09/27 04:08:10;;;;;;;24.17;21.57;;;17.00;99.90;;;;;;6132062;23;20402;-93
2021/09/27 04:11:04;;;;;;;27.37;24.50;;;17.00;99.90;;;;;;6133259;23;20494;-93
2021/09/27 04:13:43;;;;;;;23.83;21.27;;;17.00;99.90;;;;;;6135699;23;20418;-92
2021/09/27 04:16:33;;;;;;;26.13;22.80;;;17.00;99.90;;;;;;6142886;23;20415;-93
2021/09/27 04:19:33;;;;;;;;;;;;;;;;;;;;;
2021/09/27 04:22:09;;;;;;;28.00;21.40;;;17.00;99.90;;;;;;6133637;23;20395;-92
2021/09/27 04:24:52;;;;;;;22.80;20.50;;;17.00;99.90;;;;;;6148847;23;20416;-92
2021/09/27 04:27:54;;;;;;;26.03;20.83;;;17.00;99.90;;;;;;6149689;23;20395;-92
2021/09/27 04:30:49;;;;;;;23.60;21.10;;;16.90;99.90;;;;;;6143895;23;20490;-92
2021/09/27 04:33:36;;;;;;;24.67;21.90;;;16.90;99.90;;;;;;6145925;23;20371;-92
2021/09/27 04:36:22;;;;;;;23.43;21.13;;;16.80;99.90;;;;;;6145586;23;20478;-91
2021/09/27 04:39:03;;;;;;;26.33;23.20;;;16.80;99.90;;;;;;6146390;23;20412;-92
2021/09/27 04:41:55;;;;;;;29.20;22.97;;;16.70;99.90;;;;;;6152334;23;20444;-90
2021/09/27 04:44:43;;;;;;;27.30;23.47;;;16.70;99.90;;;;;;6152462;23;20442;-91
2021/09/27 04:47:39;;;;;;;25.60;22.50;;;16.60;99.90;;;;;;6152889;23;20405;-91
2021/09/27 04:50:27;;;;;;;27.77;23.87;;;16.60;99.90;;;;;;6144291;23;20404;-93
2021/09/27 04:53:03;;;;;;;32.67;24.57;;;16.50;99.90;;;;;;6143455;23;20396;-92
2021/09/27 04:55:54;;;;;;;28.97;22.60;;;16.50;99.90;;;;;;6146157;23;20411;-91
2021/09/27 04:58:49;;;;;;;28.10;22.87;;;16.40;99.90;;;;;;6151045;23;20432;-93
2021/09/27 05:01:54;;;;;;;28.30;22.83;;;16.40;99.90;;;;;;6142012;23;20463;-92
2021/09/27 05:04:46;;;;;;;28.07;23.70;;;16.30;99.90;;;;;;6149014;23;20466;-93
2021/09/27 05:14:30;;;;;;;26.30;20.50;;;16.10;99.90;;;;;;6143957;23;20418;-92
2021/09/27 05:17:25;;;;;;;28.83;22.37;;;16.10;99.90;;;;;;6141611;23;20479;-92
2021/09/27 05:20:35;;;;;;;23.33;20.23;;;16.10;99.90;;;;;;6142447;23;20447;-93
2021/09/27 05:26:51;;;;;;;;;;;;;;;;;;;;;
2021/09/27 05:29:50;;;;;;;25.43;21.43;;;16.00;99.90;;;;;;6151161;23;20460;-93
2021/09/27 05:32:32;;;;;;;25.03;22.20;;;16.10;99.90;;;;;;6140284;23;20396;-90
2021/09/27 05:35:22;;;;;;;26.67;23.80;;;16.10;99.90;;;;;;6138929;23;20440;-90
2021/09/27 05:38:00;;;;;;;25.53;21.67;;;16.10;99.90;;;;;;6139805;23;20497;-91
2021/09/27 05:40:38;;;;;;;24.50;21.13;;;16.00;99.90;;;;;;6140242;23;20416;-90
2021/09/27 05:43:24;;;;;;;25.47;22.63;;;16.10;99.90;;;;;;6140765;23;20470;-90
2021/09/27 05:46:06;;;;;;;29.13;20.80;;;16.10;99.90;;;;;;6140672;23;20401;-91
2021/09/27 05:48:41;;;;;;;39.20;23.70;;;16.10;99.90;;;;;;6143035;23;20388;-90
2021/09/27 05:51:17;;;;;;;31.17;22.70;;;16.10;99.90;;;;;;6133733;23;20743;-92
2021/09/27 05:53:56;;;;;;;29.67;24.97;;;16.10;99.90;;;;;;6128675;23;20431;-89
2021/09/27 05:56:30;;;;;;;26.33;20.60;;;16.10;99.90;;;;;;6130978;23;20412;-86
2021/09/27 05:59:04;;;;;;;25.60;22.73;;;16.20;99.90;;;;;;6144683;23;20459;-89
2021/09/27 06:01:46;;;;;;;28.13;22.70;;;16.30;99.90;;;;;;6130492;23;20400;-90
2021/09/27 06:04:27;;;;;;;24.23;21.40;;;16.30;99.90;;;;;;6142017;23;20443;-88
2021/09/27 06:07:07;;;;;;;27.27;23.23;;;16.20;99.90;;;;;;6143062;23;20400;-89
2021/09/27 06:09:58;;;;;;;28.90;22.87;;;16.30;99.90;;;;;;6146784;23;20502;-88
2021/09/27 06:12:32;;;;;;;31.00;25.33;;;16.30;99.90;;;;;;6134855;23;20890;-89
2021/09/27 06:15:04;;;;;;;36.93;25.00;;;16.30;99.90;;;;;;6132506;23;20431;-88
2021/09/27 06:17:50;;;;;;;31.30;26.53;;;16.40;99.90;;;;;;6135803;23;20454;-88
2021/09/27 06:20:21;;;;;;;35.07;27.63;;;16.50;99.90;;;;;;6131778;23;20396;-89
2021/09/27 06:23:13;;;;;;;32.20;26.10;;;16.60;99.90;;;;;;6129803;23;20407;-90
2021/09/27 06:25:51;;;;;;;29.47;24.10;;;16.70;99.90;;;;;;6135422;23;20388;-91
2021/09/27 06:28:27;;;;;;;26.80;23.43;;;16.70;99.90;;;;;;6142673;23;20388;-91
2021/09/27 06:31:01;;;;;;;32.03;22.90;;;16.90;99.90;;;;;;6144281;23;20415;-90
2021/09/27 06:33:33;;;;;;;31.47;23.47;;;16.90;99.90;;;;;;6131006;23;20483;-91
2021/09/27 06:36:04;;;;;;;43.20;23.53;;;17.00;99.90;;;;;;6132537;23;20394;-90
2021/09/27 06:38:34;;;;;;;28.57;22.30;;;17.10;99.90;;;;;;6128576;23;20437;-89
2021/09/27 06:41:04;;;;;;;25.77;23.10;;;17.10;99.90;;;;;;6127637;23;20910;-89
2021/09/27 06:43:30;;;;;;;26.20;22.07;;;17.10;99.90;;;;;;6144016;23;20439;-89
2021/09/27 06:46:00;;;;;;;21.50;19.27;;;17.10;99.90;;;;;;6144534;23;20396;-92
2021/09/27 06:48:27;;;;;;;21.53;19.37;;;17.20;99.90;;;;;;6127037;23;20719;-88
2021/09/27 06:50:56;;;;;;;21.80;19.27;;;17.20;99.90;;;;;;6127878;23;20414;-88
2021/09/27 06:53:25;;;;;;;21.33;19.07;;;17.30;99.90;;;;;;6129811;23;20394;-89
2021/09/27 06:55:51;;;;;;;21.27;19.07;;;17.30;99.90;;;;;;6126901;23;20403;-88
2021/09/27 06:58:23;;;;;;;22.07;19.70;;;17.30;99.90;;;;;;6130724;23;20443;-88
2021/09/27 07:00:49;;;;;;;20.63;18.53;;;17.30;99.90;;;;;;6130466;23;20396;-89
2021/09/27 07:03:30;;;;;;;20.47;18.30;;;17.40;99.90;;;;;;6133882;23;20490;-89
2021/09/27 07:05:57;;;;;;;18.73;16.77;;;17.40;99.90;;;;;;6142288;23;20431;-88
2021/09/27 07:08:27;;;;;;;21.00;18.27;;;17.50;99.90;;;;;;6145504;23;20431;-89
2021/09/27 07:10:55;;;;;;;21.53;18.33;;;17.60;99.90;;;;;;6144692;23;20428;-88
2021/09/27 07:13:24;;;;;;;22.07;18.70;;;17.70;99.90;;;;;;6148971;23;20471;-88
2021/09/27 07:15:51;;;;;;;18.23;16.40;;;17.90;99.90;;;;;;6129702;23;20430;-89
2021/09/27 07:18:18;;;;;;;19.27;17.33;;;17.90;99.90;;;;;;6126529;23;20440;-89
2021/09/27 07:20:46;;;;;;;17.87;16.00;;;18.00;99.90;;;;;;6128914;23;20407;-89
2021/09/27 07:23:12;;;;;;;20.83;18.63;;;18.00;99.90;;;;;;6135521;23;20405;-88
2021/09/27 07:25:39;;;;;;;18.57;16.67;;;18.00;99.90;;;;;;6128072;23;20413;-88
2021/09/27 07:28:06;;;;;;;17.63;15.50;;;18.00;99.90;;;;;;6126011;23;20404;-89
2021/09/27 07:30:36;;;;;;;19.80;17.87;;;18.10;99.90;;;;;;6126048;23;20828;-89
2021/09/27 07:33:04;;;;;;;16.87;15.07;;;18.10;99.90;;;;;;6132884;23;20405;-89
2021/09/27 07:35:31;;;;;;;18.83;16.90;;;18.10;99.90;;;;;;6132344;23;20413;-89
2021/09/27 07:37:58;;;;;;;18.07;16.17;;;18.20;99.90;;;;;;6126090;23;20953;-89
2021/09/27 07:40:28;;;;;;;18.97;17.00;;;18.20;99.90;;;;;;6126849;23;20922;-89
2021/09/27 07:42:55;;;;;;;20.87;18.63;;;18.30;99.90;;;;;;6127173;23;20405;-88
2021/09/27 07:45:24;;;;;;;19.47;16.83;;;18.30;99.90;;;;;;6126424;23;20435;-88
2021/09/27 07:47:52;;;;;;;17.33;15.53;;;18.40;99.90;;;;;;6128517;23;20408;-89
2021/09/27 07:50:19;;;;;;;17.50;15.40;;;18.50;99.90;;;;;;6128232;23;20735;-89
2021/09/27 07:52:46;;;;;;;16.70;15.10;;;18.50;99.90;;;;;;6126587;23;20439;-88
2021/09/27 07:55:13;;;;;;;18.10;15.30;;;18.60;99.90;;;;;;6125997;23;20926;-89
2021/09/27 07:57:40;;;;;;;17.33;14.60;;;18.60;99.90;;;;;;6126016;23;20445;-89
2021/09/27 08:00:09;;;;;;;22.73;15.93;;;18.90;99.90;;;;;;6126938;23;20417;-89
2021/09/27 08:02:36;;;;;;;19.33;16.40;;;19.00;99.90;;;;;;6126461;23;20417;-88
2021/09/27 08:05:05;;;;;;;17.53;15.47;;;19.10;99.90;;;;;;6126447;23;20472;-89
2021/09/27 08:07:32;;;;;;;17.07;14.27;;;19.10;99.90;;;;;;6126506;23;20412;-88
2021/09/27 08:09:59;;;;;;;15.80;14.40;;;19.20;99.90;;;;;;6137930;23;20414;-88
2021/09/27 08:12:25;;;;;;;14.63;12.93;;;19.20;99.90;;;;;;6138192;23;20472;-88
2021/09/27 08:14:54;;;;;;;17.53;12.97;;;19.30;99.90;;;;;;6138659;23;20418;-88
2021/09/27 08:17:21;;;;;;;13.77;11.10;;;19.40;99.90;;;;;;6142476;23;20847;-88
2021/09/27 08:19:48;;;;;;;12.63;11.33;;;19.90;99.90;;;;;;6138259;23;20414;-88
2021/09/27 08:22:16;;;;;;;14.37;13.07;;;21.00;99.90;;;;;;6137465;23;20876;-88
2021/09/27 08:24:43;;;;;;;14.80;13.33;;;21.50;99.90;;;;;;6131962;23;20479;-89
2021/09/27 08:27:10;;;;;;;15.03;13.53;;;21.60;99.90;;;;;;6136704;23;20787;-89
2021/09/27 08:29:38;;;;;;;14.83;13.23;;;21.50;99.90;;;;;;6130451;23;20408;-88
2021/09/27 08:32:05;;;;;;;17.83;13.73;;;21.00;99.90;;;;;;6135733;23;20408;-88
2021/09/27 08:34:32;;;;;;;13.50;12.27;;;20.90;99.90;;;;;;6153005;23;20525;-88
2021/09/27 08:36:59;;;;;;;13.30;12.00;;;20.80;99.90;;;;;;6133398;23;20424;-88
2021/09/27 08:39:27;;;;;;;14.43;12.90;;;20.70;99.90;;;;;;6131430;23;20523;-88
2021/09/27 08:42:01;;;;;;;13.33;12.03;;;20.50;99.90;;;;;;6128302;23;20396;-89
2021/09/27 08:44:41;;;;;;;12.50;11.30;;;20.60;99.90;;;;;;6129230;23;20419;-89
2021/09/27 08:47:13;;;;;;;13.63;12.30;;;20.70;99.90;;;;;;6127290;23;20482;-89
2021/09/27 08:49:47;;;;;;;9.83;8.90;;;20.70;99.90;;;;;;6129445;23;20394;-88
2021/09/27 08:52:17;;;;;;;10.40;9.30;;;20.80;99.90;;;;;;6148345;23;20423;-87
2021/09/27 08:54:47;;;;;;;8.97;8.10;;;21.30;99.90;;;;;;6141863;23;20456;-88
2021/09/27 08:57:31;;;;;;;8.73;6.43;;;21.90;99.90;;;;;;6147319;23;20406;-88
2021/09/27 09:00:08;;;;;;;8.60;7.90;;;23.70;99.90;;;;;;6135234;23;20391;-89
2021/09/27 09:02:47;;;;;;;6.03;5.53;;;26.20;96.00;;;;;;6130022;23;20415;-88
2021/09/27 09:05:20;;;;;;;7.90;6.63;;;27.90;91.10;;;;;;6135605;23;20510;-89
2021/09/27 09:07:52;;;;;;;6.27;5.77;;;29.70;84.70;;;;;;6128948;23;20471;-89
2021/09/27 09:10:33;;;;;;;5.93;5.53;;;27.50;81.30;;;;;;6130447;23;20419;-89
2021/09/27 09:13:05;;;;;;;5.03;4.63;;;27.30;83.50;;;;;;6127443;23;20400;-89
2021/09/27 09:15:32;;;;;;;5.80;5.30;;;28.40;83.10;;;;;;6130206;23;20409;-89
2021/09/27 09:18:03;;;;;;;4.87;4.50;;;28.60;79.00;;;;;;6128433;23;20432;-88
2021/09/27 09:20:44;;;;;;;4.67;4.27;;;29.50;76.90;;;;;;6128324;23;20395;-88
2021/09/27 09:23:18;;;;;;;4.97;4.60;;;29.90;72.60;;;;;;6128598;23;20395;-89
2021/09/27 09:25:46;;;;;;;4.60;4.20;;;30.00;73.50;;;;;;6127574;23;20403;-90
2021/09/27 09:28:13;;;;;;;4.47;4.07;;;32.00;68.60;;;;;;6126551;23;20415;-89
2021/09/27 09:30:45;;;;;;;4.10;3.80;;;31.80;62.40;;;;;;6128088;23;20412;-89
2021/09/27 09:33:43;;;;;;;6.40;4.00;;;31.10;63.40;;;;;;6126816;23;20422;-89
2021/09/27 09:36:14;;;;;;;4.60;3.87;;;29.70;66.60;;;;;;6127907;23;20399;-89
2021/09/27 09:38:43;;;;;;;5.30;4.33;;;29.80;68.50;;;;;;6127881;23;20424;-90
2021/09/27 09:41:12;;;;;;;7.40;3.80;;;30.40;67.50;;;;;;6128128;23;20392;-88
2021/09/27 09:43:42;;;;;;;4.30;4.00;;;32.00;62.30;;;;;;6127304;23;20519;-89
2021/09/27 09:46:18;;;;;;;3.10;2.90;;;32.50;59.80;;;;;;6127934;23;20381;-89
2021/09/27 09:49:04;;;;;;;3.87;3.57;;;34.00;56.70;;;;;;6126655;23;20934;-89
2021/09/27 09:51:38;;;;;;;3.37;3.17;;;33.70;55.60;;;;;;6127174;23;20411;-89
2021/09/27 09:54:19;;;;;;;4.30;3.90;;;33.60;55.30;;;;;;6126494;23;20950;-88
2021/09/27 09:57:03;;;;;;;4.57;4.10;;;32.70;55.40;;;;;;6127661;23;20388;-89
2021/09/27 09:59:34;;;;;;;4.93;4.43;;;31.50;58.60;;;;;;6145418;23;20420;-89
2021/09/27 10:02:04;;;;;;;3.73;3.43;;;33.40;57.00;;;;;;6152056;23;20395;-89
2021/09/27 10:04:37;;;;;;;4.17;3.57;;;36.40;52.50;;;;;;6154106;23;20427;-87
2021/09/27 10:07:11;;;;;;;4.00;3.60;;;37.10;48.50;;;;;;6151607;23;20384;-87
2021/09/27 10:09:46;;;;;;;3.67;3.37;;;38.40;46.60;;;;;;6139778;23;20392;-89
2021/09/27 10:12:35;;;;;;;5.07;3.87;;;37.90;45.30;;;;;;6130935;23;20392;-89
2021/09/27 10:15:01;;;;;;;4.93;3.60;;;38.40;45.90;;;;;;6129247;23;20435;-90
2021/09/27 10:17:32;;;;;;;4.17;3.80;;;37.80;45.60;;;;;;6129424;23;20912;-89
2021/09/27 10:20:08;;;;;;;4.13;3.70;;;36.10;47.40;;;;;;6129079;23;20466;-89
2021/09/27 10:22:39;;;;;;;4.00;3.70;;;35.90;47.50;;;;;;6140378;23;20395;-89
2021/09/27 10:25:26;;;;;;;3.50;3.20;;;36.30;47.20;;;;;;6133878;23;20435;-89
2021/09/27 10:27:54;;;;;;;3.30;3.10;;;36.80;45.80;;;;;;6143733;23;20395;-89
2021/09/27 10:30:26;;;;;;;3.67;3.37;;;37.30;45.20;;;;;;6135675;23;20407;-89
2021/09/27 10:32:56;;;;;;;4.00;3.30;;;36.10;43.70;;;;;;6132287;23;20403;-89
2021/09/27 10:35:29;;;;;;;3.40;3.20;;;33.20;47.80;;;;;;6128905;23;20765;-88
2021/09/27 10:38:02;;;;;;;4.20;3.90;;;31.00;52.20;;;;;;6138407;23;20396;-88
2021/09/27 10:40:29;;;;;;;4.23;3.83;;;29.90;54.20;;;;;;6144352;23;20767;-88
2021/09/27 10:42:58;;;;;;;4.03;3.73;;;28.60;56.50;;;;;;6143522;23;20581;-87
2021/09/27 10:45:26;;;;;;;4.43;3.47;;;29.10;58.30;;;;;;6138093;23;20423;-88
2021/09/27 10:47:56;;;;;;;4.40;3.20;;;30.60;56.50;;;;;;6129629;23;20407;-88
2021/09/27 10:50:26;;;;;;;3.03;2.83;;;31.20;54.10;;;;;;6128276;23;20412;-89
2021/09/27 10:53:03;;;;;;;3.30;3.10;;;32.00;51.70;;;;;;6128259;23;20403;-88
2021/09/27 10:55:46;;;;;;;7.57;4.00;;;32.10;50.20;;;;;;6126638;23;20442;-88
2021/09/27 10:58:30;;;;;;;3.93;3.53;;;32.60;52.00;;;;;;6127441;23;20388;-89
2021/09/27 11:00:57;;;;;;;6.20;3.30;;;32.80;49.60;;;;;;6143809;23;20454;-88
2021/09/27 11:03:27;;;;;;;2.57;2.37;;;32.20;51.40;;;;;;6139941;23;20738;-88
2021/09/27 11:05:59;;;;;;;3.03;2.83;;;32.00;49.30;;;;;;6127135;23;20503;-88
2021/09/27 11:08:47;;;;;;;4.50;3.57;;;32.20;49.00;;;;;;6126389;23;20762;-88
2021/09/27 11:11:25;;;;;;;5.40;3.60;;;30.40;52.20;;;;;;6130796;23;20403;-88
2021/09/27 11:13:53;;;;;;;4.97;3.30;;;28.80;56.70;;;;;;6134421;23;20423;-88
2021/09/27 11:16:24;;;;;;;3.87;3.47;;;29.40;57.00;;;;;;6128273;23;20419;-88
2021/09/27 11:18:59;;;;;;;3.10;2.90;;;29.40;55.80;;;;;;6138848;23;20432;-89
2021/09/27 11:21:43;;;;;;;4.93;3.87;;;30.30;55.10;;;;;;6136061;23;20863;-88
2021/09/27 11:24:45;;;;;;;4.10;3.40;;;31.10;53.00;;;;;;6135471;23;20449;-89
2021/09/27 11:27:14;;;;;;;2.93;2.73;;;30.80;52.50;;;;;;6133966;23;20903;-89
2021/09/27 11:29:54;;;;;;;4.03;2.93;;;30.20;53.80;;;;;;6140021;23;20400;-87
2021/09/27 11:32:43;;;;;;;3.83;3.50;;;30.20;54.40;;;;;;6136186;23;20434;-88
2021/09/27 11:35:27;;;;;;;2.93;2.63;;;30.20;55.20;;;;;;6133640;23;20443;-89
2021/09/27 11:38:29;;;;;;;3.03;2.83;;;30.60;54.10;;;;;;6134949;23;20407;-86
2021/09/27 11:41:23;;;;;;;3.43;3.13;;;31.10;54.10;;;;;;6043229;23;20407;-89
2021/09/27 11:43:56;;;;;;;3.30;3.00;;;32.60;52.10;;;;;;6126133;23;20415;-88
2021/09/27 11:46:32;;;;;;;3.40;2.53;;;33.80;50.60;;;;;;6140461;23;20453;-89
2021/09/27 11:49:03;;;;;;;2.90;2.70;;;35.00;47.70;;;;;;6142524;23;20387;-88
2021/09/27 11:51:37;;;;;;;3.70;2.90;;;34.70;45.90;;;;;;6144747;23;20423;-89
2021/09/27 11:54:39;;;;;;;3.30;2.97;;;34.90;46.40;;;;;;6137985;23;20931;-91
2021/09/27 11:57:19;;;;;;;2.87;2.67;;;35.00;45.60;;;;;;6094678;23;20414;-91
2021/09/27 11:59:56;;;;;;;3.13;2.93;;;34.40;46.90;;;;;;6140325;23;20439;-88
2021/09/27 12:02:49;;;;;;;3.37;3.10;;;33.10;47.80;;;;;;6144037;23;20481;-90
2021/09/27 12:05:40;;;;;;;3.40;3.10;;;30.90;50.70;;;;;;6148184;23;20416;-89
2021/09/27 12:11:37;;;;;;;3.30;3.00;;;29.00;54.30;;;;;;6051711;23;20495;-90
2021/09/27 12:14:18;;;;;;;3.83;3.07;;;28.60;55.80;;;;;;6051790;23;20438;-91
2021/09/27 12:16:50;;;;;;;3.00;2.80;;;28.30;56.20;;;;;;6138960;23;20403;-90
2021/09/27 12:19:24;;;;;;;4.40;3.00;;;28.10;56.90;;;;;;6153312;23;20434;-90
2021/09/27 12:22:03;;;;;;;3.37;3.07;;;27.90;57.80;;;;;;6140980;23;20424;-90
2021/09/27 12:24:47;;;;;;;2.90;2.70;;;28.40;57.10;;;;;;6144456;23;20434;-89
2021/09/27 12:27:22;;;;;;;3.17;2.97;;;28.10;56.80;;;;;;6152183;23;20433;-91
2021/09/27 12:29:56;;;;;;;3.10;2.90;;;27.60;58.40;;;;;;6145236;23;20453;-89
2021/09/27 12:32:27;;;;;;;2.90;2.70;;;27.00;60.90;;;;;;6148950;23;20396;-91
2021/09/27 12:34:57;;;;;;;2.70;2.50;;;27.30;60.00;;;;;;6136939;23;20431;-91
2021/09/27 12:37:24;;;;;;;3.33;3.00;;;27.60;58.80;;;;;;6136136;23;20416;-92
2021/09/27 12:39:52;;;;;;;3.57;3.30;;;27.10;58.90;;;;;;6138307;23;20452;-90
2021/09/27 12:42:23;;;;;;;3.00;2.80;;;27.00;61.00;;;;;;6136734;23;20407;-90
2021/09/27 12:45:00;;;;;;;3.53;3.23;;;27.10;60.60;;;;;;6130387;23;20443;-91
2021/09/27 12:47:28;;;;;;;2.60;2.40;;;27.40;61.40;;;;;;6131668;23;20396;-90
2021/09/27 12:50:00;;;;;;;3.13;2.50;;;27.00;60.60;;;;;;6142645;23;20401;-90
2021/09/27 12:52:38;;;;;;;3.93;2.70;;;27.30;60.00;;;;;;6130565;23;20401;-90
2021/09/27 12:55:09;;;;;;;4.43;3.40;;;27.50;59.80;;;;;;6128726;23;20434;-91
2021/09/27 12:57:38;;;;;;;5.47;2.43;;;27.60;60.10;;;;;;6128660;23;20946;-90
2021/09/27 13:00:10;;;;;;;4.53;3.50;;;27.20;59.40;;;;;;6148990;23;20461;-90
2021/09/27 13:02:42;;;;;;;4.43;2.90;;;27.20;60.70;;;;;;6128798;23;20394;-89
2021/09/27 13:05:15;;;;;;;5.23;3.00;;;27.30;60.50;;;;;;6130240;23;20762;-89
2021/09/27 13:07:45;;;;;;;3.10;2.80;;;27.40;59.30;;;;;;6129351;23;20380;-90
2021/09/27 13:10:28;;;;;;;3.83;3.37;;;27.70;59.00;;;;;;6131575;23;20404;-90
2021/09/27 13:13:09;;;;;;;3.37;2.93;;;27.60;59.20;;;;;;6128465;23;20391;-92
2021/09/27 13:15:42;;;;;;;3.10;2.80;;;27.20;59.90;;;;;;6127645;23;20423;-91
2021/09/27 13:18:12;;;;;;;3.27;2.73;;;26.80;61.30;;;;;;6129079;23;20423;-88
2021/09/27 13:20:59;;;;;;;3.20;2.90;;;26.70;62.90;;;;;;6127721;23;20468;-90
2021/09/27 13:23:35;;;;;;;5.33;3.20;;;26.20;62.80;;;;;;6127571;23;21021;-91
2021/09/27 13:26:06;;;;;;;3.10;2.90;;;25.60;65.50;;;;;;6128683;23;20402;-90
2021/09/27 13:28:37;;;;;;;3.47;3.20;;;25.40;66.40;;;;;;6127968;23;20900;-90
2021/09/27 13:31:08;;;;;;;3.70;3.20;;;25.50;67.30;;;;;;6129833;23;20404;-91
2021/09/27 13:33:39;;;;;;;4.67;3.40;;;25.60;66.90;;;;;;6136267;23;20440;-90
2021/09/27 13:36:11;;;;;;;4.17;3.47;;;25.50;66.90;;;;;;6135481;23;20402;-90
2021/09/27 13:38:42;;;;;;;4.07;3.07;;;25.40;67.30;;;;;;6139333;23;20384;-91
2021/09/27 13:41:15;;;;;;;4.10;2.60;;;25.40;67.80;;;;;;6130226;23;20961;-90
2021/09/27 13:43:46;;;;;;;5.20;3.03;;;25.40;68.30;;;;;;6129405;23;20921;-90
2021/09/27 13:46:16;;;;;;;5.50;4.23;;;25.40;68.70;;;;;;6128826;23;20468;-90
2021/09/27 13:48:43;;;;;;;4.80;3.97;;;25.50;69.40;;;;;;6128016;23;20451;-89
2021/09/27 13:51:11;;;;;;;4.40;3.10;;;25.50;69.90;;;;;;6128221;23;20894;-91
2021/09/27 13:53:46;;;;;;;4.30;3.90;;;25.60;70.40;;;;;;6129770;23;20440;-89
2021/09/27 13:56:17;;;;;;;4.30;3.80;;;25.70;70.30;;;;;;6130391;23;20392;-90
2021/09/27 13:58:46;;;;;;;5.47;4.97;;;25.80;70.00;;;;;;6128864;23;20404;-89
2021/09/27 14:01:13;;;;;;;5.23;3.50;;;26.00;69.30;;;;;;6127725;23;21017;-90
2021/09/27 14:03:40;;;;;;;4.10;3.80;;;26.10;69.30;;;;;;6139286;23;20525;-90
2021/09/27 14:06:07;;;;;;;4.50;4.10;;;26.10;69.00;;;;;;6145466;23;20401;-89
2021/09/27 14:08:35;;;;;;;7.13;4.10;;;26.30;68.80;;;;;;6154294;23;20402;-91
2021/09/27 14:11:02;;;;;;;5.43;3.80;;;26.40;68.90;;;;;;6154073;23;20396;-89
2021/09/27 14:13:31;;;;;;;4.90;3.93;;;26.40;68.80;;;;;;6149479;23;20428;-89
2021/09/27 14:16:00;;;;;;;3.97;3.67;;;26.40;68.40;;;;;;6149831;23;20444;-89
2021/09/27 14:18:28;;;;;;;4.10;3.70;;;26.40;68.40;;;;;;6142167;23;20401;-89
2021/09/27 14:20:55;;;;;;;4.30;3.77;;;26.40;68.00;;;;;;6134295;23;20445;-90
2021/09/27 14:23:23;;;;;;;3.67;3.37;;;26.40;68.10;;;;;;6132338;23;20415;-91
2021/09/27 14:25:51;;;;;;;6.03;3.70;;;26.40;68.90;;;;;;6142166;23;20397;-89
2021/09/27 14:28:21;;;;;;;4.03;3.73;;;26.50;68.20;;;;;;6137555;23;20394;-89
2021/09/27 14:30:49;;;;;;;4.20;3.40;;;26.50;67.90;;;;;;6139784;23;20403;-89
2021/09/27 14:33:17;;;;;;;3.63;3.33;;;26.40;68.00;;;;;;6134869;23;20408;-91
2021/09/27 14:35:44;;;;;;;4.57;3.87;;;26.30;69.00;;;;;;6129711;23;20417;-91
2021/09/27 14:38:13;;;;;;;4.90;4.60;;;26.20;69.00;;;;;;6128580;23;20415;-90